Cartago, California
Current Conditions -  °F | °C
As of 10:56 PM on Saturday 22 Nov 2014 (Local Time) from KNID Reporting Station
Clear Clear  
Wind Chill: 47°   Ceiling: Unl
Heat Index: 47°   Visibility: 10mi
Dew Point: 31°   Wind: 0mph
Humidity: 54%   Direction: NA
Pressure: 29.97"   Gusts: NA
Location:  36.217°N, 117.947°W
Report Text: KNID 230656Z AUTO 00000KT 10SM CLR 08/M01 A2997 RMK AO2 SLP147 T00831006 $
Loading
Personal Weather Stations






























Interactive Weather Map New forecast layout! Learn more

10-Day Weather Forecast

Advertisements
Track Severe Weather on mobile